Aviation Digital Data Service (ADDS)

Output produced by TAFs form (2030 UTC 27 February 2017)
found at http://aviationweather.gov/adds/tafs/
 
KDRO 271738Z 2718/2818 VRB03KT P6SM VCSH BKN045 OVC060 
     FM272100 24015G23KT P6SM VCSH OVC030 
     FM280000 24013KT 6SM -RASN OVC025 
     FM280300 24010KT 2SM -SN OVC010 
     FM280500 24008KT 1/2SM SN OVC008 
     FM281400 25005KT 2SM -SN OVC015